sensor_id;sensor_type;location;lat;lon;timestamp;pressure;altitude;pressure_sealevel;temperature;humidity
60089;BME280;45961;53.574;55.878;2023-04-01T00:00:52;100154.63;;;5.86;87.47
60089;BME280;45961;53.574;55.878;2023-04-01T00:01:53;100152.06;;;5.86;87.35
60089;BME280;45961;53.574;55.878;2023-04-01T00:02:54;100153.75;;;5.86;87.59
60089;BME280;45961;53.574;55.878;2023-04-01T00:03:55;100136.41;;;5.77;87.56
60089;BME280;45961;53.574;55.878;2023-04-01T00:04:56;100150.19;;;5.81;87.63
60089;BME280;45961;53.574;55.878;2023-04-01T00:05:58;100149.38;;;5.82;87.52
60089;BME280;45961;53.574;55.878;2023-04-01T00:06:59;100153.81;;;5.87;87.21
60089;BME280;45961;53.574;55.878;2023-04-01T00:08:00;100162.28;;;5.85;87.17
60089;BME280;45961;53.574;55.878;2023-04-01T00:09:01;100166.66;;;5.87;87.38
60089;BME280;45961;53.574;55.878;2023-04-01T00:10:04;100166.56;;;5.84;87.69
60089;BME280;45961;53.574;55.878;2023-04-01T00:11:05;100164.84;;;5.83;87.80
60089;BME280;45961;53.574;55.878;2023-04-01T00:12:06;100164.78;;;5.82;87.96
60089;BME280;45961;53.574;55.878;2023-04-01T00:13:08;100156.97;;;5.79;87.89
60089;BME280;45961;53.574;55.878;2023-04-01T00:14:09;100148.53;;;5.83;88.29
60089;BME280;45961;53.574;55.878;2023-04-01T00:15:11;100129.53;;;5.76;88.80
60089;BME280;45961;53.574;55.878;2023-04-01T00:16:13;100143.34;;;5.80;88.85
60089;BME280;45961;53.574;55.878;2023-04-01T00:17:14;100139.06;;;5.80;89.03
60089;BME280;45961;53.574;55.878;2023-04-01T00:18:15;100132.09;;;5.76;88.80
60089;BME280;45961;53.574;55.878;2023-04-01T00:19:16;100140.78;;;5.81;89.01
60089;BME280;45961;53.574;55.878;2023-04-01T00:20:17;100137.34;;;5.81;88.80
60089;BME280;45961;53.574;55.878;2023-04-01T00:21:20;100142.66;;;5.87;88.41
60089;BME280;45961;53.574;55.878;2023-04-01T00:22:23;100142.63;;;5.85;88.40
60089;BME280;45961;53.574;55.878;2023-04-01T00:23:24;100133.22;;;5.86;88.39
60089;BME280;45961;53.574;55.878;2023-04-01T00:24:26;100127.13;;;5.82;88.15
60089;BME280;45961;53.574;55.878;2023-04-01T00:25:27;100120.41;;;5.87;88.61
60089;BME280;45961;53.574;55.878;2023-04-01T00:26:27;100107.28;;;5.77;89.09
60089;BME280;45961;53.574;55.878;2023-04-01T00:27:28;100099.25;;;5.64;89.89
60089;BME280;45961;53.574;55.878;2023-04-01T00:28:29;100095.06;;;5.68;89.99
60089;BME280;45961;53.574;55.878;2023-04-01T00:29:30;100095.16;;;5.71;90.19
60089;BME280;45961;53.574;55.878;2023-04-01T00:30:32;100090.06;;;5.73;90.52
60089;BME280;45961;53.574;55.878;2023-04-01T00:31:32;100102.69;;;5.65;90.73
60089;BME280;45961;53.574;55.878;2023-04-01T00:32:34;100094.16;;;5.66;91.06
60089;BME280;45961;53.574;55.878;2023-04-01T00:33:36;100090.69;;;5.64;90.90
60089;BME280;45961;53.574;55.878;2023-04-01T00:34:37;100100.78;;;5.58;91.36
60089;BME280;45961;53.574;55.878;2023-04-01T00:35:39;100100.84;;;5.59;91.66
60089;BME280;45961;53.574;55.878;2023-04-01T00:36:41;100086.25;;;5.58;91.68
60089;BME280;45961;53.574;55.878;2023-04-01T00:37:42;100086.22;;;5.57;91.87
60089;BME280;45961;53.574;55.878;2023-04-01T00:38:43;100084.59;;;5.60;91.94
60089;BME280;45961;53.574;55.878;2023-04-01T00:39:44;100078.69;;;5.63;92.22
60089;BME280;45961;53.574;55.878;2023-04-01T00:40:46;100067.31;;;5.55;92.29
60089;BME280;45961;53.574;55.878;2023-04-01T00:41:47;100081.69;;;5.48;92.57
60089;BME280;45961;53.574;55.878;2023-04-01T00:42:48;100080.75;;;5.44;92.80
60089;BME280;45961;53.574;55.878;2023-04-01T00:43:50;100086.94;;;5.51;92.98
60089;BME280;45961;53.574;55.878;2023-04-01T00:44:53;100090.34;;;5.52;93.17
60089;BME280;45961;53.574;55.878;2023-04-01T00:45:55;100107.50;;;5.53;92.85
60089;BME280;45961;53.574;55.878;2023-04-01T00:46:56;100112.72;;;5.56;92.49
60089;BME280;45961;53.574;55.878;2023-04-01T00:47:58;100111.88;;;5.57;92.85
60089;BME280;45961;53.574;55.878;2023-04-01T00:49:00;100106.75;;;5.57;92.65
60089;BME280;45961;53.574;55.878;2023-04-01T00:50:02;100104.16;;;5.55;92.70
60089;BME280;45961;53.574;55.878;2023-04-01T00:51:22;100119.78;;;5.63;92.68
60089;BME280;45961;53.574;55.878;2023-04-01T00:52:25;100114.69;;;5.66;92.71
60089;BME280;45961;53.574;55.878;2023-04-01T00:53:28;100112.31;;;5.72;92.24
60089;BME280;45961;53.574;55.878;2023-04-01T00:54:30;100107.81;;;5.65;92.20
60089;BME280;45961;53.574;55.878;2023-04-01T00:55:34;100109.56;;;5.66;92.11
60089;BME280;45961;53.574;55.878;2023-04-01T00:56:44;100098.31;;;5.61;92.00
60089;BME280;45961;53.574;55.878;2023-04-01T00:57:48;100116.47;;;5.67;91.93
60089;BME280;45961;53.574;55.878;2023-04-01T00:58:51;100116.38;;;5.64;91.99
60089;BME280;45961;53.574;55.878;2023-04-01T00:59:54;100113.72;;;5.61;91.97
60089;BME280;45961;53.574;55.878;2023-04-01T01:00:56;100118.88;;;5.62;92.18
60089;BME280;45961;53.574;55.878;2023-04-01T01:02:05;100148.03;;;5.64;91.90
60089;BME280;45961;53.574;55.878;2023-04-01T01:03:07;100106.84;;;5.60;92.03
60089;BME280;45961;53.574;55.878;2023-04-01T01:04:22;100104.19;;;5.57;91.99
60089;BME280;45961;53.574;55.878;2023-04-01T01:05:38;100114.53;;;5.60;92.45
60089;BME280;45961;53.574;55.878;2023-04-01T01:06:48;100115.22;;;5.54;92.81
60089;BME280;45961;53.574;55.878;2023-04-01T01:08:06;100115.22;;;5.54;93.01
60089;BME280;45961;53.574;55.878;2023-04-01T01:09:33;100123.97;;;5.61;93.17
60089;BME280;45961;53.574;55.878;2023-04-01T01:10:38;100127.41;;;5.61;93.26
60089;BME280;45961;53.574;55.878;2023-04-01T01:11:45;100155.63;;;5.60;93.20
60089;BME280;45961;53.574;55.878;2023-04-01T01:12:59;100130.03;;;5.63;93.31
60089;BME280;45961;53.574;55.878;2023-04-01T01:15:30;100119.81;;;5.66;93.10
60089;BME280;45961;53.574;55.878;2023-04-01T01:16:39;100118.94;;;5.64;93.14
60089;BME280;45961;53.574;55.878;2023-04-01T01:27:11;100096.50;;;5.58;93.46
60089;BME280;45961;53.574;55.878;2023-04-01T01:36:31;100060.31;;;5.48;94.74
60089;BME280;45961;53.574;55.878;2023-04-01T01:37:37;100048.69;;;5.30;94.81
60089;BME280;45961;53.574;55.878;2023-04-01T01:38:39;100067.56;;;5.32;94.97
60089;BME280;45961;53.574;55.878;2023-04-01T01:39:43;100056.13;;;5.21;95.41
60089;BME280;45961;53.574;55.878;2023-04-01T01:40:48;100051.09;;;5.24;95.84
60089;BME280;45961;53.574;55.878;2023-04-01T01:41:59;100050.47;;;5.33;95.92
60089;BME280;45961;53.574;55.878;2023-04-01T01:43:08;100057.41;;;5.35;96.13
60089;BME280;45961;53.574;55.878;2023-04-01T01:44:13;100062.47;;;5.34;95.91
60089;BME280;45961;53.574;55.878;2023-04-01T01:45:17;100068.66;;;5.40;95.91
60089;BME280;45961;53.574;55.878;2023-04-01T01:46:23;100077.34;;;5.45;96.01
60089;BME280;45961;53.574;55.878;2023-04-01T01:47:26;100076.69;;;5.53;95.61
60089;BME280;45961;53.574;55.878;2023-04-01T01:48:29;100081.03;;;5.55;95.25
60089;BME280;45961;53.574;55.878;2023-04-01T01:49:32;100072.31;;;5.49;95.18
60089;BME280;45961;53.574;55.878;2023-04-01T01:50:34;100090.41;;;5.55;94.83
60089;BME280;45961;53.574;55.878;2023-04-01T01:51:36;100088.13;;;5.64;94.74
60089;BME280;45961;53.574;55.878;2023-04-01T01:52:39;100085.47;;;5.61;94.33
60089;BME280;45961;53.574;55.878;2023-04-01T01:53:40;100076.16;;;5.64;94.13
60089;BME280;45961;53.574;55.878;2023-04-01T01:54:52;100079.59;;;5.65;93.87
60089;BME280;45961;53.574;55.878;2023-04-01T01:55:55;100086.34;;;5.61;93.77
60089;BME280;45961;53.574;55.878;2023-04-01T01:57:00;100094.88;;;5.60;93.69
60089;BME280;45961;53.574;55.878;2023-04-01T01:59:14;100147.00;;;5.58;93.54
60089;BME280;45961;53.574;55.878;2023-04-01T02:00:19;100155.91;;;5.70;93.42
60089;BME280;45961;53.574;55.878;2023-04-01T02:01:24;100173.88;;;5.70;93.37
60089;BME280;45961;53.574;55.878;2023-04-01T02:02:28;100170.44;;;5.70;93.26
60089;BME280;45961;53.574;55.878;2023-04-01T02:03:35;100173.00;;;5.70;93.26
60089;BME280;45961;53.574;55.878;2023-04-01T02:04:39;100172.13;;;5.68;93.24
60089;BME280;45961;53.574;55.878;2023-04-01T02:05:42;100170.38;;;5.67;93.29
60089;BME280;45961;53.574;55.878;2023-04-01T02:06:53;100156.63;;;5.65;93.25
60089;BME280;45961;53.574;55.878;2023-04-01T02:08:06;100142.78;;;5.60;93.31
60089;BME280;45961;53.574;55.878;2023-04-01T02:09:09;100154.91;;;5.65;93.41
60089;BME280;45961;53.574;55.878;2023-04-01T02:10:11;100155.72;;;5.63;93.17
60089;BME280;45961;53.574;55.878;2023-04-01T02:11:15;100152.22;;;5.61;93.20
60089;BME280;45961;53.574;55.878;2023-04-01T02:12:19;100147.06;;;5.59;93.26
60089;BME280;45961;53.574;55.878;2023-04-01T02:13:29;100139.28;;;5.58;93.19
60089;BME280;45961;53.574;55.878;2023-04-01T02:16:15;100126.44;;;5.58;93.05
60089;BME280;45961;53.574;55.878;2023-04-01T02:17:19;100113.47;;;5.52;92.72
60089;BME280;45961;53.574;55.878;2023-04-01T02:18:21;100104.16;;;5.55;92.84
60089;BME280;45961;53.574;55.878;2023-04-01T02:19:26;100104.19;;;5.57;92.83
60089;BME280;45961;53.574;55.878;2023-04-01T02:20:29;100110.19;;;5.57;92.96
60089;BME280;45961;53.574;55.878;2023-04-01T02:21:32;100104.19;;;5.57;93.08
60089;BME280;45961;53.574;55.878;2023-04-01T02:22:35;100095.63;;;5.56;93.32
60089;BME280;45961;53.574;55.878;2023-04-01T02:23:38;100080.91;;;5.51;93.44
60089;BME280;45961;53.574;55.878;2023-04-01T02:24:40;100078.06;;;5.40;93.78
60089;BME280;45961;53.574;55.878;2023-04-01T02:25:43;100060.00;;;5.37;94.33
60089;BME280;45961;53.574;55.878;2023-04-01T02:26:46;100040.75;;;5.21;94.42
60089;BME280;45961;53.574;55.878;2023-04-01T02:27:47;100063.31;;;5.33;95.10
60089;BME280;45961;53.574;55.878;2023-04-01T02:28:49;100052.16;;;5.31;95.32
60089;BME280;45961;53.574;55.878;2023-04-01T02:29:52;100061.78;;;5.39;95.11
60089;BME280;45961;53.574;55.878;2023-04-01T02:30:53;100052.00;;;5.26;95.21
60089;BME280;45961;53.574;55.878;2023-04-01T02:31:55;100062.44;;;5.32;95.63
60089;BME280;45961;53.574;55.878;2023-04-01T02:32:57;100086.72;;;5.43;95.78
60089;BME280;45961;53.574;55.878;2023-04-01T02:34:00;100094.53;;;5.48;95.46
60089;BME280;45961;53.574;55.878;2023-04-01T02:35:01;100101.41;;;5.49;95.35
60089;BME280;45961;53.574;55.878;2023-04-01T02:36:11;100123.72;;;5.52;95.36
60089;BME280;45961;53.574;55.878;2023-04-01T02:37:13;100124.91;;;5.63;95.37
60089;BME280;45961;53.574;55.878;2023-04-01T02:38:14;100112.09;;;5.64;95.12
60089;BME280;45961;53.574;55.878;2023-04-01T02:39:17;100111.22;;;5.64;94.77
60089;BME280;45961;53.574;55.878;2023-04-01T02:40:19;100119.78;;;5.63;94.68
60089;BME280;45961;53.574;55.878;2023-04-01T02:41:20;100139.34;;;5.59;94.44
60089;BME280;45961;53.574;55.878;2023-04-01T02:42:21;100144.50;;;5.59;94.44
60089;BME280;45961;53.574;55.878;2023-04-01T02:43:23;100144.69;;;5.67;94.45
60089;BME280;45961;53.574;55.878;2023-04-01T02:44:24;100160.13;;;5.68;94.34
60089;BME280;45961;53.574;55.878;2023-04-01T02:45:25;100156.50;;;5.60;94.35
60089;BME280;45961;53.574;55.878;2023-04-01T02:46:27;100164.22;;;5.62;94.14
60089;BME280;45961;53.574;55.878;2023-04-01T02:47:27;100171.13;;;5.63;94.29
60089;BME280;45961;53.574;55.878;2023-04-01T02:48:30;100173.63;;;5.61;94.16
60089;BME280;45961;53.574;55.878;2023-04-01T02:49:31;100157.31;;;5.59;93.87
60089;BME280;45961;53.574;55.878;2023-04-01T02:50:31;100145.25;;;5.57;93.85
60089;BME280;45961;53.574;55.878;2023-04-01T02:51:33;100145.25;;;5.57;94.03
60089;BME280;45961;53.574;55.878;2023-04-01T02:52:34;100141.81;;;5.56;93.85
60089;BME280;45961;53.574;55.878;2023-04-01T02:53:36;100146.13;;;5.57;93.49
60089;BME280;45961;53.574;55.878;2023-04-01T02:54:38;100147.81;;;5.55;93.62
60089;BME280;45961;53.574;55.878;2023-04-01T02:55:39;100149.63;;;5.59;93.69
60089;BME280;45961;53.574;55.878;2023-04-01T02:56:40;100142.66;;;5.55;93.66
60089;BME280;45961;53.574;55.878;2023-04-01T02:57:41;100138.44;;;5.57;93.69
60089;BME280;45961;53.574;55.878;2023-04-01T02:58:42;100138.50;;;5.59;93.77
60089;BME280;45961;53.574;55.878;2023-04-01T02:59:43;100129.03;;;5.58;94.05
60089;BME280;45961;53.574;55.878;2023-04-01T03:00:47;100135.03;;;5.58;93.97
60089;BME280;45961;53.574;55.878;2023-04-01T03:01:48;100130.03;;;5.63;93.69
60089;BME280;45961;53.574;55.878;2023-04-01T03:02:49;100137.13;;;5.72;93.30
60089;BME280;45961;53.574;55.878;2023-04-01T03:03:50;100138.81;;;5.71;93.17
60089;BME280;45961;53.574;55.878;2023-04-01T03:04:51;100142.25;;;5.72;93.38
60089;BME280;45961;53.574;55.878;2023-04-01T03:05:52;100150.81;;;5.72;93.40
60089;BME280;45961;53.574;55.878;2023-04-01T03:06:56;100149.16;;;5.74;93.23
60089;BME280;45961;53.574;55.878;2023-04-01T03:08:01;100148.28;;;5.74;93.01
60089;BME280;45961;53.574;55.878;2023-04-01T03:09:03;100139.59;;;5.68;92.59
60089;BME280;45961;53.574;55.878;2023-04-01T03:10:05;100141.44;;;5.74;92.52
60089;BME280;45961;53.574;55.878;2023-04-01T03:11:06;100128.41;;;5.66;92.37
60089;BME280;45961;53.574;55.878;2023-04-01T03:12:10;100147.50;;;5.76;92.50
60089;BME280;45961;53.574;55.878;2023-04-01T03:13:20;100157.06;;;5.82;92.40
60089;BME280;45961;53.574;55.878;2023-04-01T03:14:22;100157.19;;;5.86;92.29
60089;BME280;45961;53.574;55.878;2023-04-01T03:15:23;100160.88;;;5.94;91.99
60089;BME280;45961;53.574;55.878;2023-04-01T03:16:24;100166.94;;;5.97;92.03
60089;BME280;45961;53.574;55.878;2023-04-01T03:17:25;100164.38;;;5.97;92.09
60089;BME280;45961;53.574;55.878;2023-04-01T03:18:27;100161.69;;;5.93;92.25
60089;BME280;45961;53.574;55.878;2023-04-01T03:19:28;100165.13;;;5.94;92.45
60089;BME280;45961;53.574;55.878;2023-04-01T03:20:30;100166.91;;;5.95;92.67
60089;BME280;45961;53.574;55.878;2023-04-01T03:21:31;100161.69;;;5.93;92.78
60089;BME280;45961;53.574;55.878;2023-04-01T03:22:31;100154.13;;;5.98;92.98
60089;BME280;45961;53.574;55.878;2023-04-01T03:23:32;100151.44;;;5.93;93.11
60089;BME280;45961;53.574;55.878;2023-04-01T03:24:33;100155.78;;;5.96;93.11
60089;BME280;45961;53.574;55.878;2023-04-01T03:25:34;100149.84;;;5.99;93.25
60089;BME280;45961;53.574;55.878;2023-04-01T03:26:35;100153.34;;;6.01;93.22
60089;BME280;45961;53.574;55.878;2023-04-01T03:27:37;100154.22;;;6.03;93.10
60089;BME280;45961;53.574;55.878;2023-04-01T03:28:38;100156.69;;;5.98;92.87
60089;BME280;45961;53.574;55.878;2023-04-01T03:29:41;100149.94;;;6.02;92.78
60089;BME280;45961;53.574;55.878;2023-04-01T03:30:43;100141.47;;;6.06;92.77
60089;BME280;45961;53.574;55.878;2023-04-01T03:31:44;100137.31;;;6.11;92.68
60089;BME280;45961;53.574;55.878;2023-04-01T03:32:45;100131.09;;;6.03;92.70
60089;BME280;45961;53.574;55.878;2023-04-01T03:33:46;100129.47;;;6.05;92.83
60089;BME280;45961;53.574;55.878;2023-04-01T03:34:47;100136.34;;;6.06;92.93
60089;BME280;45961;53.574;55.878;2023-04-01T03:35:48;100133.88;;;6.10;93.01
60089;BME280;45961;53.574;55.878;2023-04-01T03:36:53;100124.41;;;6.08;92.84
60089;BME280;45961;53.574;55.878;2023-04-01T03:37:54;100126.81;;;6.02;93.00
60089;BME280;45961;53.574;55.878;2023-04-01T03:38:55;100105.38;;;6.01;93.26
60089;BME280;45961;53.574;55.878;2023-04-01T03:40:07;100107.00;;;5.98;93.40
60089;BME280;45961;53.574;55.878;2023-04-01T03:41:14;100096.56;;;5.91;93.45
60089;BME280;45961;53.574;55.878;2023-04-01T03:42:16;100109.47;;;5.94;93.84
60089;BME280;45961;53.574;55.878;2023-04-01T03:43:18;100119.00;;;5.99;94.03
60089;BME280;45961;53.574;55.878;2023-04-01T03:44:19;100112.31;;;6.04;93.92
60089;BME280;45961;53.574;55.878;2023-04-01T03:45:26;100114.94;;;6.07;93.72
60089;BME280;45961;53.574;55.878;2023-04-01T03:46:27;100109.00;;;6.08;93.40
60089;BME280;45961;53.574;55.878;2023-04-01T03:47:29;100104.75;;;6.10;93.51
60089;BME280;45961;53.574;55.878;2023-04-01T03:48:30;100103.84;;;6.08;93.32
60089;BME280;45961;53.574;55.878;2023-04-01T03:49:31;100097.13;;;6.13;93.29
60089;BME280;45961;53.574;55.878;2023-04-01T03:50:34;100092.81;;;6.12;93.36
60089;BME280;45961;53.574;55.878;2023-04-01T03:51:36;100094.53;;;6.11;93.42
60089;BME280;45961;53.574;55.878;2023-04-01T03:52:38;100073.69;;;6.01;93.81
60089;BME280;45961;53.574;55.878;2023-04-01T03:53:39;100065.06;;;5.99;93.76
60089;BME280;45961;53.574;55.878;2023-04-01T03:54:41;100070.06;;;5.92;94.19
60089;BME280;45961;53.574;55.878;2023-04-01T03:55:45;100073.16;;;5.81;94.65
60089;BME280;45961;53.574;55.878;2023-04-01T03:56:46;100117.09;;;5.91;95.01
60089;BME280;45961;53.574;55.878;2023-04-01T03:57:47;100141.34;;;6.01;94.90
60089;BME280;45961;53.574;55.878;2023-04-01T03:58:52;100151.06;;;6.11;94.89
60089;BME280;45961;53.574;55.878;2023-04-01T03:59:54;100146.78;;;6.12;94.61
60089;BME280;45961;53.574;55.878;2023-04-01T04:00:55;100131.38;;;6.12;94.51
60089;BME280;45961;53.574;55.878;2023-04-01T04:01:56;100118.53;;;6.13;94.56
60089;BME280;45961;53.574;55.878;2023-04-01T04:02:58;100117.34;;;6.34;94.31
60089;BME280;45961;53.574;55.878;2023-04-01T04:04:05;100119.88;;;6.32;94.22
60089;BME280;45961;53.574;55.878;2023-04-01T04:05:06;100108.75;;;6.33;94.11
60089;BME280;45961;53.574;55.878;2023-04-01T04:06:11;100117.25;;;6.31;93.87
60089;BME280;45961;53.574;55.878;2023-04-01T04:07:12;100119.56;;;6.20;94.04
60089;BME280;45961;53.574;55.878;2023-04-01T04:08:39;100114.25;;;6.12;94.11
60089;BME280;45961;53.574;55.878;2023-04-01T04:09:40;100116.00;;;6.15;94.43
60089;BME280;45961;53.574;55.878;2023-04-01T04:10:42;100114.38;;;6.18;94.55
60089;BME280;45961;53.574;55.878;2023-04-01T04:11:44;100116.19;;;6.23;94.55
60089;BME280;45961;53.574;55.878;2023-04-01T04:12:45;100090.13;;;6.07;94.59
60089;BME280;45961;53.574;55.878;2023-04-01T04:13:46;100103.53;;;6.30;94.56
60089;BME280;45961;53.574;55.878;2023-04-01T04:14:50;100105.13;;;6.25;94.38
60089;BME280;45961;53.574;55.878;2023-04-01T04:15:52;100109.50;;;6.28;94.40
60089;BME280;45961;53.574;55.878;2023-04-01T04:16:52;100110.28;;;6.27;94.19
60089;BME280;45961;53.574;55.878;2023-04-01T04:17:54;100125.03;;;6.32;94.44
60089;BME280;45961;53.574;55.878;2023-04-01T04:18:55;100122.56;;;6.37;94.30
60089;BME280;45961;53.574;55.878;2023-04-01T04:19:55;100125.09;;;6.35;94.22
60089;BME280;45961;53.574;55.878;2023-04-01T04:20:57;100128.66;;;6.40;94.00
60089;BME280;45961;53.574;55.878;2023-04-01T04:21:59;100115.88;;;6.43;93.89
60089;BME280;45961;53.574;55.878;2023-04-01T04:23:02;100104.75;;;6.45;93.83
60089;BME280;45961;53.574;55.878;2023-04-01T04:24:03;100123.63;;;6.47;93.97
60089;BME280;45961;53.574;55.878;2023-04-01T04:25:24;100122.66;;;6.41;93.90
60089;BME280;45961;53.574;55.878;2023-04-01T04:26:26;100103.06;;;6.47;94.12
60089;BME280;45961;53.574;55.878;2023-04-01T04:27:34;100079.91;;;6.45;93.92
60089;BME280;45961;53.574;55.878;2023-04-01T04:28:41;100082.56;;;6.50;93.93
60089;BME280;45961;53.574;55.878;2023-04-01T04:29:42;100067.03;;;6.45;94.05
60089;BME280;45961;53.574;55.878;2023-04-01T04:30:43;100074.94;;;6.53;94.07
60089;BME280;45961;53.574;55.878;2023-04-01T04:31:44;100083.69;;;6.59;94.26
60089;BME280;45961;53.574;55.878;2023-04-01T04:32:49;100097.06;;;6.46;94.42
60089;BME280;45961;53.574;55.878;2023-04-01T04:33:50;100103.31;;;6.57;94.51
60089;BME280;45961;53.574;55.878;2023-04-01T04:34:52;100107.59;;;6.57;94.64
60089;BME280;45961;53.574;55.878;2023-04-01T04:35:58;100111.25;;;6.66;94.70
60089;BME280;45961;53.574;55.878;2023-04-01T04:37:00;100105.31;;;6.69;94.46
60089;BME280;45961;53.574;55.878;2023-04-01T04:38:05;100115.63;;;6.71;94.46
60089;BME280;45961;53.574;55.878;2023-04-01T04:39:07;100116.56;;;6.74;94.09
60089;BME280;45961;53.574;55.878;2023-04-01T04:40:09;100110.53;;;6.72;93.77
60089;BME280;45961;53.574;55.878;2023-04-01T04:41:11;100101.00;;;6.68;93.68
60089;BME280;45961;53.574;55.878;2023-04-01T04:42:15;100119.06;;;6.71;93.67
60089;BME280;45961;53.574;55.878;2023-04-01T04:43:17;100140.75;;;6.81;93.23
60089;BME280;45961;53.574;55.878;2023-04-01T04:44:18;100138.19;;;6.82;93.05
60089;BME280;45961;53.574;55.878;2023-04-01T04:45:20;100126.41;;;6.92;92.97
60089;BME280;45961;53.574;55.878;2023-04-01T04:46:27;100132.44;;;6.94;92.95
60089;BME280;45961;53.574;55.878;2023-04-01T04:47:36;100142.81;;;6.96;93.03
60089;BME280;45961;53.574;55.878;2023-04-01T04:48:37;100129.19;;;7.01;93.02
60089;BME280;45961;53.574;55.878;2023-04-01T04:49:39;100123.09;;;6.98;93.01
60089;BME280;45961;53.574;55.878;2023-04-01T04:50:43;100135.13;;;6.99;93.18
60089;BME280;45961;53.574;55.878;2023-04-01T04:51:44;100129.16;;;7.00;93.08
60089;BME280;45961;53.574;55.878;2023-04-01T04:52:46;100129.09;;;6.97;92.84
60089;BME280;45961;53.574;55.878;2023-04-01T04:53:47;100130.06;;;7.02;92.71
60089;BME280;45961;53.574;55.878;2023-04-01T04:54:49;100115.53;;;7.04;92.72
60089;BME280;45961;53.574;55.878;2023-04-01T04:55:50;100125.16;;;7.14;92.46
60089;BME280;45961;53.574;55.878;2023-04-01T04:57:07;100108.88;;;7.15;92.35
60089;BME280;45961;53.574;55.878;2023-04-01T04:58:14;100120.25;;;7.25;92.10
60089;BME280;45961;53.574;55.878;2023-04-01T04:59:17;100123.78;;;7.30;91.80
60089;BME280;45961;53.574;55.878;2023-04-01T05:00:25;100115.06;;;7.23;91.73
60089;BME280;45961;53.574;55.878;2023-04-01T05:01:31;100130.13;;;7.46;91.36
60089;BME280;45961;53.574;55.878;2023-04-01T05:02:34;100119.66;;;7.38;91.14
60089;BME280;45961;53.574;55.878;2023-04-01T05:03:35;100100.09;;;7.48;90.70
60089;BME280;45961;53.574;55.878;2023-04-01T05:04:36;100103.53;;;7.47;90.74
60089;BME280;45961;53.574;55.878;2023-04-01T05:05:38;100099.28;;;7.49;90.81
60089;BME280;45961;53.574;55.878;2023-04-01T05:06:41;100101.94;;;7.52;90.61
60089;BME280;45961;53.574;55.878;2023-04-01T05:07:43;100118.19;;;7.51;90.42
60089;BME280;45961;53.574;55.878;2023-04-01T05:08:44;100114.72;;;7.49;90.52
60089;BME280;45961;53.574;55.878;2023-04-01T05:09:45;100113.88;;;7.48;90.18
60089;BME280;45961;53.574;55.878;2023-04-01T05:10:48;100114.69;;;7.47;90.40
60089;BME280;45961;53.574;55.878;2023-04-01T05:11:49;100113.81;;;7.45;90.28
60089;BME280;45961;53.574;55.878;2023-04-01T05:12:50;100119.03;;;7.48;90.42
60089;BME280;45961;53.574;55.878;2023-04-01T05:13:54;100125.22;;;7.58;90.71
60089;BME280;45961;53.574;55.878;2023-04-01T05:14:55;100114.19;;;7.65;90.78
60089;BME280;45961;53.574;55.878;2023-04-01T05:15:56;100116.69;;;7.62;90.68
60089;BME280;45961;53.574;55.878;2023-04-01T05:16:58;100108.09;;;7.60;90.43
60089;BME280;45961;53.574;55.878;2023-04-01T05:17:59;100111.63;;;7.66;90.44
60089;BME280;45961;53.574;55.878;2023-04-01T05:19:00;100114.25;;;7.68;90.65
60089;BME280;45961;53.574;55.878;2023-04-01T05:20:01;100095.94;;;7.53;90.24
60089;BME280;45961;53.574;55.878;2023-04-01T05:21:03;100112.56;;;7.70;90.44
60089;BME280;45961;53.574;55.878;2023-04-01T05:22:05;100100.53;;;7.71;90.20
60089;BME280;45961;53.574;55.878;2023-04-01T05:23:06;100102.25;;;7.70;90.37
60089;BME280;45961;53.574;55.878;2023-04-01T05:24:09;100113.50;;;7.74;90.55
60089;BME280;45961;53.574;55.878;2023-04-01T05:25:11;100100.69;;;7.78;90.71
60089;BME280;45961;53.574;55.878;2023-04-01T05:26:13;100101.53;;;7.77;90.58
60089;BME280;45961;53.574;55.878;2023-04-01T05:27:15;100111.13;;;7.84;90.38
60089;BME280;45961;53.574;55.878;2023-04-01T05:28:17;100118.94;;;7.89;90.14
60089;BME280;45961;53.574;55.878;2023-04-01T05:29:20;100118.94;;;7.89;90.09
60089;BME280;45961;53.574;55.878;2023-04-01T05:30:29;100119.88;;;7.96;90.21
60089;BME280;45961;53.574;55.878;2023-04-01T05:31:35;100119.94;;;7.99;90.10
60089;BME280;45961;53.574;55.878;2023-04-01T05:32:37;100110.63;;;8.05;90.06
60089;BME280;45961;53.574;55.878;2023-04-01T05:33:38;100118.50;;;8.13;89.98
60089;BME280;45961;53.574;55.878;2023-04-01T05:34:39;100118.50;;;8.13;89.62
60089;BME280;45961;53.574;55.878;2023-04-01T05:35:41;100117.72;;;8.19;89.33
60089;BME280;45961;53.574;55.878;2023-04-01T05:36:43;100116.13;;;8.27;89.06
60089;BME280;45961;53.574;55.878;2023-04-01T05:37:44;100117.94;;;8.31;89.09
60089;BME280;45961;53.574;55.878;2023-04-01T05:38:45;100124.09;;;8.37;88.84
60089;BME280;45961;53.574;55.878;2023-04-01T05:39:47;100113.91;;;8.47;88.60
60089;BME280;45961;53.574;55.878;2023-04-01T05:40:48;100119.22;;;8.56;88.00
60089;BME280;45961;53.574;55.878;2023-04-01T05:41:49;100116.59;;;8.53;87.24
60089;BME280;45961;53.574;55.878;2023-04-01T05:42:50;100113.22;;;8.57;86.41
60089;BME280;45961;53.574;55.878;2023-04-01T05:43:52;100109.00;;;8.62;85.95
60089;BME280;45961;53.574;55.878;2023-04-01T05:45:19;100118.56;;;8.69;85.87
60089;BME280;45961;53.574;55.878;2023-04-01T05:46:41;100122.94;;;8.75;85.47
60089;BME280;45961;53.574;55.878;2023-04-01T05:47:56;100121.41;;;8.87;85.15
60089;BME280;45961;53.574;55.878;2023-04-01T05:48:57;100116.34;;;8.94;84.56
60089;BME280;45961;53.574;55.878;2023-04-01T05:49:59;100122.47;;;9.02;84.12
60089;BME280;45961;53.574;55.878;2023-04-01T05:51:01;100117.25;;;8.97;83.48
60089;BME280;45961;53.574;55.878;2023-04-01T05:52:03;100123.34;;;9.02;83.11
60089;BME280;45961;53.574;55.878;2023-04-01T05:53:05;100123.53;;;9.16;82.44